createdAt,value
2022-10-18T00:00:16.961Z,99101.28
2022-10-18T00:02:46.048Z,99098.88
2022-10-18T00:05:13.418Z,99103.77
2022-10-18T00:07:40.593Z,99098.39
2022-10-18T00:10:08.915Z,99094.37
2022-10-18T00:12:37.436Z,99102.22
2022-10-18T00:15:06.561Z,99102.25
2022-10-18T00:17:35.298Z,99098.77
2022-10-18T00:20:02.914Z,99097.16
2022-10-18T00:22:30.450Z,99098.28
2022-10-18T00:24:57.841Z,99096.12
2022-10-18T00:27:24.959Z,99094.80
2022-10-18T00:29:53.203Z,99096.69
2022-10-18T00:32:20.543Z,99093.17
2022-10-18T00:34:47.933Z,99092.39
2022-10-18T00:37:15.569Z,99090.78
2022-10-18T00:39:48.051Z,99085.39
2022-10-18T00:42:22.894Z,99084.86
2022-10-18T00:44:54.286Z,99085.95
2022-10-18T00:47:22.516Z,99081.38
2022-10-18T00:49:53.660Z,99073.28
2022-10-18T00:52:36.981Z,99077.59
2022-10-18T00:55:11.707Z,99080.30
2022-10-18T00:57:43.842Z,99073.02
2022-10-18T01:00:13.626Z,99072.47
2022-10-18T01:02:46.533Z,99072.20
2022-10-18T01:05:16.817Z,99066.80
2022-10-18T01:08:04.193Z,99067.62
2022-10-18T01:10:39.856Z,99063.00
2022-10-18T01:13:24.837Z,99057.08
2022-10-18T01:16:01.494Z,99048.41
2022-10-18T01:18:41.448Z,99050.55
2022-10-18T01:21:21.477Z,99041.33
2022-10-18T01:24:04.332Z,99043.74
2022-10-18T01:26:51.902Z,99035.92
2022-10-18T01:29:31.991Z,99040.23
2022-10-18T01:32:07.691Z,99037.80
2022-10-18T01:34:36.042Z,99038.89
2022-10-18T01:37:05.701Z,99035.64
2022-10-18T01:39:36.063Z,99035.41
2022-10-18T01:42:06.083Z,99036.20
2022-10-18T01:44:34.847Z,99034.07
2022-10-18T01:47:03.802Z,99032.77
2022-10-18T01:49:32.713Z,99033.56
2022-10-18T01:52:00.067Z,99025.77
2022-10-18T01:54:38.997Z,99027.67
2022-10-18T01:57:12.818Z,99028.50
2022-10-18T01:59:52.322Z,99026.88
2022-10-18T02:02:32.473Z,99024.20
2022-10-18T02:05:06.069Z,99015.81
2022-10-18T02:07:37.401Z,99015.02
2022-10-18T02:12:43.972Z,99015.82
2022-10-18T02:15:13.484Z,99015.02
2022-10-18T02:17:40.719Z,99003.95
2022-10-18T02:20:09.040Z,99003.95
2022-10-18T02:22:37.325Z,99002.86
2022-10-18T02:25:08.746Z,99010.42
2022-10-18T02:27:37.209Z,99007.18
2022-10-18T02:30:05.458Z,99008.78
2022-10-18T02:32:48.608Z,99002.86
2022-10-18T02:35:19.400Z,99001.78
2022-10-18T02:37:48.319Z,99004.76
2022-10-18T02:40:15.871Z,99000.98
2022-10-18T02:42:56.943Z,98996.95
2022-10-18T02:45:25.648Z,99001.53
2022-10-18T02:47:53.467Z,98998.56
2022-10-18T02:50:21.163Z,98997.75
2022-10-18T02:52:48.258Z,98995.58
2022-10-18T02:55:15.671Z,98998.55
2022-10-18T02:57:42.939Z,98992.59
2022-10-18T03:00:11.170Z,98992.87
2022-10-18T03:02:38.545Z,98998.28
2022-10-18T03:05:05.985Z,98997.48
2022-10-18T03:07:33.685Z,98999.38
2022-10-18T03:10:01.167Z,98998.55
2022-10-18T03:12:28.314Z,99000.69
2022-10-18T03:14:55.539Z,98995.31
2022-10-18T03:17:22.779Z,98989.91
2022-10-18T03:19:49.886Z,99003.13
2022-10-18T03:22:17.111Z,99000.42
2022-10-18T03:24:45.022Z,98993.68
2022-10-18T03:27:12.159Z,98990.45
2022-10-18T03:29:39.988Z,98996.38
2022-10-18T03:32:07.072Z,98993.71
2022-10-18T03:34:34.117Z,98993.14
2022-10-18T03:37:04.653Z,98988.30
2022-10-18T03:39:30.947Z,98987.47
2022-10-18T03:41:58.077Z,98985.32
2022-10-18T03:44:25.445Z,98981.80
2022-10-18T03:46:52.483Z,98985.84
2022-10-18T03:49:21.119Z,98986.13
2022-10-18T03:51:48.467Z,98988.03
2022-10-18T03:54:15.810Z,98989.89
2022-10-18T03:56:43.016Z,98986.95
2022-10-18T03:59:10.231Z,98989.39
2022-10-18T04:01:37.525Z,98983.94
2022-10-18T04:04:05.004Z,98990.45
2022-10-18T04:06:32.405Z,98983.44
2022-10-18T04:08:59.829Z,98986.95
2022-10-18T04:11:27.084Z,98987.50
2022-10-18T04:13:54.361Z,98985.33
2022-10-18T04:16:21.514Z,98983.18
2022-10-18T04:18:48.867Z,98978.84
2022-10-18T04:21:16.808Z,98979.38
2022-10-18T04:23:43.900Z,98977.50
2022-10-18T04:26:11.006Z,98974.27
2022-10-18T04:28:39.507Z,98973.18
2022-10-18T04:31:06.916Z,98972.66
2022-10-18T04:33:34.162Z,98971.84
2022-10-18T04:36:01.344Z,98977.75
2022-10-18T04:38:28.430Z,98968.88
2022-10-18T04:40:55.524Z,98966.70
2022-10-18T04:43:22.631Z,98970.73
2022-10-18T04:45:50.756Z,98969.41
2022-10-18T04:48:18.640Z,98968.84
2022-10-18T04:50:47.920Z,98959.67
2022-10-18T04:53:15.999Z,98962.38
2022-10-18T04:55:45.306Z,98964.00
2022-10-18T04:58:12.791Z,98970.20
2022-10-18T05:00:40.308Z,98968.83
2022-10-18T05:03:08.326Z,98966.40
2022-10-18T05:05:50.057Z,98972.33
2022-10-18T05:08:06.530Z,98966.41
2022-10-18T05:10:33.667Z,98966.67
2022-10-18T05:13:00.973Z,98961.55
2022-10-18T05:15:27.993Z,98964.24
2022-10-18T05:17:54.998Z,98966.94
2022-10-18T05:20:22.419Z,98960.20
2022-10-18T05:22:49.481Z,98962.89
2022-10-18T05:25:16.816Z,98957.78
2022-10-18T05:27:43.991Z,98967.20
2022-10-18T05:30:11.362Z,98963.72
2022-10-18T05:32:38.551Z,98962.66
2022-10-18T05:35:09.620Z,98962.38
2022-10-18T05:37:36.744Z,98958.90
2022-10-18T05:40:04.310Z,98966.45
2022-10-18T05:42:31.914Z,98963.23
2022-10-18T05:44:59.368Z,98969.95
2022-10-18T05:47:26.569Z,98967.79
2022-10-18T05:49:53.821Z,98964.55
2022-10-18T05:52:20.920Z,98969.41
2022-10-18T05:54:48.315Z,98974.26
2022-10-18T05:57:15.579Z,98972.08
2022-10-18T05:59:43.743Z,98974.00
2022-10-18T06:02:11.938Z,98972.63
2022-10-18T06:04:39.259Z,98973.69
2022-10-18T06:07:10.814Z,98964.45
2022-10-18T06:09:38.339Z,98965.47
2022-10-18T06:12:07.779Z,98962.45
2022-10-18T06:14:36.257Z,98974.77
2022-10-18T06:17:03.696Z,98960.88
2022-10-18T06:19:30.979Z,98963.95
2022-10-18T06:21:58.399Z,98968.16
2022-10-18T06:24:26.196Z,98964.99
2022-10-18T06:26:53.581Z,98969.45
2022-10-18T06:29:20.639Z,98960.26
2022-10-18T06:31:47.768Z,98957.61
2022-10-18T06:34:14.991Z,98952.20
2022-10-18T06:36:42.156Z,98949.30
2022-10-18T06:39:09.755Z,98944.81
2022-10-18T06:41:36.969Z,98944.63
2022-10-18T06:44:07.830Z,98947.93
2022-10-18T06:46:34.820Z,98940.89
2022-10-18T06:49:02.112Z,98942.05
2022-10-18T06:51:29.316Z,98943.28
2022-10-18T06:54:16.879Z,98939.64
2022-10-18T06:56:25.603Z,98931.87
2022-10-18T06:58:52.963Z,98938.43
2022-10-18T07:01:20.435Z,98938.51
2022-10-18T07:03:48.917Z,98937.78
2022-10-18T07:06:18.430Z,98935.66
2022-10-18T07:08:46.333Z,98930.33
2022-10-18T07:11:16.193Z,98931.30
2022-10-18T07:13:43.286Z,98931.08
2022-10-18T07:16:14.306Z,98924.41
2022-10-18T07:18:43.559Z,98919.86
2022-10-18T07:21:13.483Z,98923.42
2022-10-18T07:23:42.654Z,98921.54
2022-10-18T07:26:31.175Z,98927.33
2022-10-18T07:29:02.185Z,98926.00
2022-10-18T07:31:30.021Z,98918.09
2022-10-18T07:33:57.673Z,98914.75
2022-10-18T07:36:25.336Z,98920.44
2022-10-18T07:38:53.326Z,98912.52
2022-10-18T07:41:21.201Z,98911.20
2022-10-18T07:43:53.225Z,98910.64
2022-10-18T07:46:21.777Z,98907.34
2022-10-18T07:48:49.172Z,98908.98
2022-10-18T07:51:17.478Z,98899.98
2022-10-18T07:53:45.016Z,98899.80
2022-10-18T07:56:19.781Z,98896.84
2022-10-18T07:58:50.762Z,98895.48
2022-10-18T08:01:19.075Z,98899.42
2022-10-18T08:03:46.328Z,98891.20
2022-10-18T08:06:15.715Z,98892.66
2022-10-18T08:08:43.170Z,98892.66
2022-10-18T08:11:14.440Z,98900.68
2022-10-18T08:13:42.397Z,98896.14
2022-10-18T08:16:12.617Z,98891.33
2022-10-18T08:18:40.063Z,98891.09
2022-10-18T08:21:09.186Z,98890.52
2022-10-18T08:23:36.942Z,98891.88
2022-10-18T08:26:05.608Z,98881.94
2022-10-18T08:28:34.798Z,98881.66
2022-10-18T08:31:06.664Z,98888.55
2022-10-18T08:33:35.685Z,98876.11
2022-10-18T08:36:07.794Z,98876.95
2022-10-18T08:38:36.727Z,98875.75
2022-10-18T08:41:39.581Z,98872.39
2022-10-18T08:44:30.275Z,98867.72
2022-10-18T08:47:06.037Z,98863.78
2022-10-18T08:49:50.946Z,98867.21
2022-10-18T08:52:30.940Z,98868.03
2022-10-18T08:55:03.958Z,98863.84
2022-10-18T08:57:32.691Z,98862.16
2022-10-18T09:00:02.541Z,98862.92
2022-10-18T09:02:49.920Z,98859.59
2022-10-18T09:05:20.649Z,98863.59
2022-10-18T09:08:11.017Z,98858.66
2022-10-18T09:10:45.423Z,98853.91
2022-10-18T09:13:28.384Z,98850.95
2022-10-18T09:15:59.274Z,98851.63
2022-10-18T09:18:48.464Z,98843.70
2022-10-18T09:21:23.019Z,98837.66
2022-10-18T09:24:08.889Z,98833.71
2022-10-18T09:26:45.859Z,98820.73
2022-10-18T09:29:40.569Z,98827.25
2022-10-18T09:32:31.832Z,98822.44
2022-10-18T09:35:26.918Z,98822.02
2022-10-18T09:37:57.661Z,98811.74
2022-10-18T09:40:27.748Z,98809.09
2022-10-18T09:43:04.700Z,98803.83
2022-10-18T09:45:34.818Z,98803.54
2022-10-18T09:48:05.625Z,98802.59
2022-10-18T09:50:47.991Z,98796.11
2022-10-18T09:53:28.104Z,98796.99
2022-10-18T09:56:06.796Z,98793.33
2022-10-18T09:58:46.513Z,98789.06
2022-10-18T10:01:22.320Z,98793.51
2022-10-18T10:03:49.470Z,98780.52
2022-10-18T10:06:25.830Z,98780.91
2022-10-18T10:08:59.792Z,98775.31
2022-10-18T10:11:41.787Z,98766.45
2022-10-18T10:14:18.774Z,98768.09
2022-10-18T10:16:57.476Z,98761.48
2022-10-18T10:19:34.175Z,98763.78
2022-10-18T10:22:09.209Z,98754.46
2022-10-18T10:24:53.630Z,98754.03
2022-10-18T10:27:33.843Z,98748.59
2022-10-18T10:30:06.727Z,98746.12
2022-10-18T10:32:35.018Z,98743.19
2022-10-18T10:35:02.176Z,98741.69
2022-10-18T10:37:32.458Z,98737.96
2022-10-18T10:40:28.709Z,98726.45
2022-10-18T10:43:25.066Z,98717.11
2022-10-18T10:46:01.666Z,98710.86
2022-10-18T10:48:33.518Z,98698.39
2022-10-18T10:51:06.945Z,98693.69
2022-10-18T10:53:44.481Z,98698.49
2022-10-18T10:56:17.319Z,98689.66
2022-10-18T10:58:44.488Z,98681.66
2022-10-18T11:01:23.766Z,98685.62
2022-10-18T11:03:53.749Z,98675.55
2022-10-18T11:06:49.178Z,98666.78
2022-10-18T11:09:26.181Z,98666.95
2022-10-18T11:11:56.802Z,98661.83
2022-10-18T11:14:27.253Z,98659.98
2022-10-18T11:17:13.206Z,98661.45
2022-10-18T11:19:57.025Z,98650.01
2022-10-18T11:22:25.754Z,98644.77
2022-10-18T11:24:52.859Z,98643.39
2022-10-18T11:27:38.964Z,98645.24
2022-10-18T11:30:21.785Z,98641.55
2022-10-18T11:33:33.669Z,98632.89
2022-10-18T11:36:06.021Z,98634.70
2022-10-18T11:38:45.511Z,98627.02
2022-10-18T11:41:31.199Z,98619.09
2022-10-18T11:44:02.957Z,98611.75
2022-10-18T11:46:45.814Z,98608.63
2022-10-18T11:49:53.397Z,98604.98
2022-10-18T11:52:32.817Z,98593.99
2022-10-18T11:55:20.336Z,98593.63
2022-10-18T11:57:57.378Z,98583.07
2022-10-18T12:00:48.561Z,98585.33
2022-10-18T12:03:28.601Z,98585.33
2022-10-18T12:05:57.814Z,98570.69
2022-10-18T12:08:29.165Z,98572.94
2022-10-18T12:11:06.156Z,98569.70
2022-10-18T12:13:34.651Z,98562.13
2022-10-18T12:16:06.771Z,98550.66
2022-10-18T12:18:35.994Z,98550.59
2022-10-18T12:21:05.083Z,98549.88
2022-10-18T12:23:38.446Z,98549.84
2022-10-18T12:26:07.756Z,98546.47
2022-10-18T12:28:41.482Z,98540.92
2022-10-18T12:31:27.671Z,98539.61
2022-10-18T12:33:57.658Z,98539.48
2022-10-18T12:36:51.174Z,98537.47
2022-10-18T12:39:44.009Z,98523.23
2022-10-18T12:42:00.315Z,98523.52
2022-10-18T12:44:33.068Z,98518.08
2022-10-18T12:47:04.751Z,98514.17
2022-10-18T12:49:35.296Z,98512.23
2022-10-18T12:52:04.882Z,98511.55
2022-10-18T12:54:34.930Z,98503.27
2022-10-18T12:57:04.439Z,98501.13
2022-10-18T12:59:35.212Z,98499.03
2022-10-18T13:02:07.059Z,98502.23
2022-10-18T13:04:35.611Z,98498.52
2022-10-18T13:07:09.323Z,98488.53
2022-10-18T13:09:41.190Z,98485.83
2022-10-18T13:12:15.014Z,98482.66
2022-10-18T13:15:05.964Z,98479.46
2022-10-18T13:17:32.067Z,98479.63
2022-10-18T13:20:27.026Z,98477.98
2022-10-18T13:22:58.140Z,98472.55
2022-10-18T13:25:51.927Z,98477.16
2022-10-18T13:28:38.235Z,98468.49
2022-10-18T13:31:20.658Z,98467.84
2022-10-18T13:33:48.054Z,98470.59
2022-10-18T13:36:23.535Z,98461.37
2022-10-18T13:38:57.724Z,98458.28
2022-10-18T13:41:30.158Z,98448.75
2022-10-18T13:44:04.584Z,98438.74
2022-10-18T13:46:38.508Z,98442.66
2022-10-18T13:49:26.290Z,98435.58
2022-10-18T13:52:03.079Z,98429.91
2022-10-18T13:55:04.363Z,98426.11
2022-10-18T13:57:52.198Z,98422.84
2022-10-18T14:00:53.362Z,98422.52
2022-10-18T14:03:56.739Z,98418.73
2022-10-18T14:06:10.695Z,98406.25
2022-10-18T14:08:44.306Z,98401.16
2022-10-18T14:11:34.968Z,98392.70
2022-10-18T14:14:25.589Z,98395.45
2022-10-18T14:16:59.766Z,98401.16
2022-10-18T14:19:41.117Z,98393.14
2022-10-18T14:22:30.869Z,98400.34
2022-10-18T14:24:58.935Z,98395.56
2022-10-18T14:27:32.374Z,98397.78
2022-10-18T14:30:18.382Z,98392.92
2022-10-18T14:32:48.568Z,98396.52
2022-10-18T14:35:37.643Z,98395.94
2022-10-18T14:37:53.556Z,98390.63
2022-10-18T14:40:38.597Z,98384.86
2022-10-18T14:43:12.364Z,98387.41
2022-10-18T14:45:41.072Z,98377.45
2022-10-18T14:48:14.544Z,98381.80
2022-10-18T14:50:43.396Z,98375.51
2022-10-18T14:53:16.333Z,98377.64
2022-10-18T14:55:43.616Z,98380.38
2022-10-18T14:58:15.209Z,98379.16
2022-10-18T15:00:45.093Z,98371.09
2022-10-18T15:03:14.052Z,98370.41
2022-10-18T15:05:55.747Z,98379.27
2022-10-18T15:08:24.077Z,98371.84
2022-10-18T15:10:51.870Z,98368.86
2022-10-18T15:13:19.044Z,98367.47
2022-10-18T15:15:46.678Z,98366.06
2022-10-18T15:18:23.467Z,98363.22
2022-10-18T15:21:21.560Z,98364.05
2022-10-18T15:23:49.708Z,98365.09
2022-10-18T15:26:23.509Z,98362.67
2022-10-18T15:28:52.550Z,98356.15
2022-10-18T15:31:36.925Z,98363.67
2022-10-18T15:34:22.723Z,98366.61
2022-10-18T15:36:51.415Z,98364.63
2022-10-18T15:39:24.097Z,98359.70
2022-10-18T15:41:54.238Z,98363.61
2022-10-18T15:44:24.452Z,98360.72
2022-10-18T15:46:54.882Z,98356.58
2022-10-18T15:49:28.502Z,98361.75
2022-10-18T15:52:04.939Z,98361.89
2022-10-18T15:54:32.282Z,98353.11
2022-10-18T15:57:03.000Z,98363.81
2022-10-18T15:59:31.583Z,98364.16
2022-10-18T16:01:58.697Z,98361.28
2022-10-18T16:04:28.428Z,98360.11
2022-10-18T16:06:56.986Z,98363.52
2022-10-18T16:09:26.284Z,98367.80
2022-10-18T16:11:56.942Z,98366.84
2022-10-18T16:14:22.299Z,98366.77
2022-10-18T16:16:53.157Z,98368.90
2022-10-18T16:19:22.217Z,98377.83
2022-10-18T16:21:50.474Z,98369.89
2022-10-18T16:24:18.576Z,98369.25
2022-10-18T16:26:45.990Z,98365.34
2022-10-18T16:29:22.928Z,98368.44
2022-10-18T16:31:52.733Z,98362.67
2022-10-18T16:34:19.920Z,98359.85
2022-10-18T16:36:46.867Z,98359.67
2022-10-18T16:39:16.286Z,98362.11
2022-10-18T16:41:44.049Z,98364.73
2022-10-18T16:44:11.532Z,98369.80
2022-10-18T16:46:38.797Z,98367.50
2022-10-18T16:49:06.115Z,98369.05
2022-10-18T16:51:33.025Z,98373.31
2022-10-18T16:54:00.074Z,98363.94
2022-10-18T16:56:30.128Z,98368.93
2022-10-18T16:58:58.574Z,98372.30
2022-10-18T17:01:26.362Z,98373.84
2022-10-18T17:03:54.714Z,98370.58
2022-10-18T17:06:28.686Z,98367.55
2022-10-18T17:08:57.276Z,98371.81
2022-10-18T17:11:27.775Z,98376.07
2022-10-18T17:13:55.386Z,98373.76
2022-10-18T17:16:31.536Z,98375.27
2022-10-18T17:19:01.180Z,98374.08
2022-10-18T17:21:29.318Z,98375.28
2022-10-18T17:23:58.311Z,98370.24
2022-10-18T17:26:28.759Z,98369.05
2022-10-18T17:28:57.934Z,98372.25
2022-10-18T17:31:25.132Z,98371.78
2022-10-18T17:33:54.105Z,98370.19
2022-10-18T17:36:21.806Z,98366.98
2022-10-18T17:38:52.990Z,98366.52
2022-10-18T17:41:20.535Z,98370.33
2022-10-18T17:43:47.725Z,98372.81
2022-10-18T17:46:15.331Z,98370.03
2022-10-18T17:48:42.511Z,98364.99
2022-10-18T17:51:12.062Z,98369.21
2022-10-18T17:53:39.740Z,98361.19
2022-10-18T17:56:07.384Z,98362.94
2022-10-18T17:58:35.000Z,98361.19
2022-10-18T18:01:17.995Z,98357.03
2022-10-18T18:03:47.239Z,98358.22
2022-10-18T18:06:20.336Z,98356.86
2022-10-18T18:08:48.899Z,98353.34
2022-10-18T18:11:16.903Z,98348.70
2022-10-18T18:13:44.065Z,98347.91
2022-10-18T18:16:13.250Z,98342.77
2022-10-18T18:18:40.820Z,98342.31
2022-10-18T18:21:07.985Z,98350.93
2022-10-18T18:23:35.002Z,98341.12
2022-10-18T18:26:02.011Z,98344.13
2022-10-18T18:28:29.289Z,98346.63
2022-10-18T18:30:56.571Z,98340.45
2022-10-18T18:33:23.831Z,98340.78
2022-10-18T18:35:56.333Z,98342.70
2022-10-18T18:38:24.062Z,98333.81
2022-10-18T18:41:09.314Z,98338.75
2022-10-18T18:43:37.853Z,98335.08
2022-10-18T18:46:05.248Z,98332.75
2022-10-18T18:48:33.999Z,98334.27
2022-10-18T18:51:02.382Z,98331.59
2022-10-18T18:53:29.937Z,98322.88
2022-10-18T18:56:02.162Z,98325.27
2022-10-18T18:58:29.493Z,98320.28
2022-10-18T19:00:56.737Z,98325.93
2022-10-18T19:03:23.674Z,98322.63
2022-10-18T19:05:50.766Z,98326.70
2022-10-18T19:08:17.884Z,98324.70
2022-10-18T19:10:47.031Z,98328.09
2022-10-18T19:13:14.224Z,98320.17
2022-10-18T19:15:41.223Z,98318.64
2022-10-18T19:18:08.338Z,98320.67
2022-10-18T19:20:35.334Z,98319.78
2022-10-18T19:23:02.451Z,98323.11
2022-10-18T19:25:29.572Z,98324.05
2022-10-18T19:27:56.689Z,98318.73
2022-10-18T19:30:23.986Z,98311.26
2022-10-18T19:32:52.902Z,98310.05
2022-10-18T19:35:19.965Z,98310.47
2022-10-18T19:37:47.119Z,98307.84
2022-10-18T19:40:14.221Z,98301.12
2022-10-18T19:42:41.263Z,98295.74
2022-10-18T19:45:08.886Z,98292.31
2022-10-18T19:47:37.701Z,98295.27
2022-10-18T19:50:05.425Z,98295.08
2022-10-18T19:52:32.821Z,98298.59
2022-10-18T19:55:00.119Z,98294.89
2022-10-18T19:57:28.243Z,98289.55
2022-10-18T19:59:56.663Z,98290.96
2022-10-18T20:02:24.234Z,98285.41
2022-10-18T20:04:51.561Z,98287.13
2022-10-18T20:07:18.511Z,98282.34
2022-10-18T20:09:47.389Z,98281.36
2022-10-18T20:12:14.798Z,98280.85
2022-10-18T20:14:41.953Z,98281.97
2022-10-18T20:17:11.206Z,98279.02
2022-10-18T20:19:38.392Z,98275.25
2022-10-18T20:22:05.462Z,98270.75
2022-10-18T20:24:32.409Z,98268.64
2022-10-18T20:26:59.509Z,98267.98
2022-10-18T20:29:26.513Z,98265.95
2022-10-18T20:31:55.088Z,98259.79
2022-10-18T20:34:24.409Z,98258.00
2022-10-18T20:36:53.687Z,98251.27
2022-10-18T20:39:21.427Z,98247.94
2022-10-18T20:41:48.618Z,98251.26
2022-10-18T20:44:18.711Z,98255.44
2022-10-18T20:46:46.481Z,98251.62
2022-10-18T20:49:16.202Z,98253.24
2022-10-18T20:51:43.557Z,98239.38
2022-10-18T20:54:11.432Z,98247.75
2022-10-18T20:56:38.790Z,98241.73
2022-10-18T20:59:08.217Z,98240.05
2022-10-18T21:01:36.586Z,98235.89
2022-10-18T21:04:05.938Z,98229.84
2022-10-18T21:06:41.628Z,98229.56
2022-10-18T21:09:11.482Z,98226.27
2022-10-18T21:11:41.303Z,98225.70
2022-10-18T21:14:11.079Z,98224.95
2022-10-18T21:16:38.126Z,98224.66
2022-10-18T21:19:08.752Z,98226.39
2022-10-18T21:21:35.933Z,98227.56
2022-10-18T21:24:06.948Z,98219.72
2022-10-18T21:26:32.434Z,98219.19
2022-10-18T21:28:59.906Z,98209.38
2022-10-18T21:31:28.963Z,98214.38
2022-10-18T21:34:01.612Z,98207.74
2022-10-18T21:36:34.176Z,98204.72
2022-10-18T21:39:02.686Z,98203.55
2022-10-18T21:41:30.854Z,98197.78
2022-10-18T21:43:57.849Z,98206.02
2022-10-18T21:46:28.155Z,98207.06
2022-10-18T21:48:56.744Z,98193.14
2022-10-18T21:51:26.012Z,98196.02
2022-10-18T21:53:55.307Z,98190.78
2022-10-18T21:56:31.151Z,98189.31
2022-10-18T21:58:58.809Z,98186.22
2022-10-18T22:01:29.143Z,98192.31
2022-10-18T22:03:56.602Z,98195.94
2022-10-18T22:06:24.468Z,98191.97
2022-10-18T22:08:53.964Z,98188.53
2022-10-18T22:11:24.417Z,98188.35
2022-10-18T22:13:52.014Z,98180.34
2022-10-18T22:16:19.467Z,98178.84
2022-10-18T22:18:47.948Z,98171.35
2022-10-18T22:21:16.502Z,98166.30
2022-10-18T22:23:45.918Z,98167.45
2022-10-18T22:26:19.300Z,98167.25
2022-10-18T22:28:46.369Z,98168.96
2022-10-18T22:31:19.396Z,98165.26
2022-10-18T22:33:49.176Z,98167.80
2022-10-18T22:36:16.092Z,98159.80
2022-10-18T22:38:43.252Z,98158.31
2022-10-18T22:41:11.323Z,98155.69
2022-10-18T22:43:38.669Z,98153.05
2022-10-18T22:46:09.052Z,98157.15
2022-10-18T22:48:36.578Z,98155.86
2022-10-18T22:51:04.183Z,98148.28
2022-10-18T22:53:32.477Z,98149.73
2022-10-18T22:55:59.629Z,98148.73
2022-10-18T22:58:26.774Z,98147.25
2022-10-18T23:01:05.215Z,98146.24
2022-10-18T23:03:32.452Z,98143.33
2022-10-18T23:05:59.783Z,98139.91
2022-10-18T23:08:27.096Z,98133.77
2022-10-18T23:10:56.168Z,98131.41
2022-10-18T23:13:24.502Z,98128.19
2022-10-18T23:15:52.204Z,98126.94
2022-10-18T23:18:19.336Z,98118.84
2022-10-18T23:20:46.408Z,98116.90
2022-10-18T23:23:13.754Z,98121.19
2022-10-18T23:25:40.828Z,98123.10
2022-10-18T23:28:07.949Z,98118.25
2022-10-18T23:30:37.320Z,98119.29
2022-10-18T23:33:04.282Z,98119.84
2022-10-18T23:35:31.243Z,98120.95
2022-10-18T23:37:58.490Z,98120.67
2022-10-18T23:40:25.670Z,98114.78
2022-10-18T23:42:52.811Z,98109.63
2022-10-18T23:45:20.102Z,98115.27
2022-10-18T23:47:47.215Z,98118.49
2022-10-18T23:50:14.723Z,98119.25
2022-10-18T23:52:42.059Z,98112.98
2022-10-18T23:55:11.548Z,98107.83
2022-10-18T23:57:40.343Z,98105.33
